sensor_id;sensor_type;location;lat;lon;timestamp;temperature;humidity
44431;DHT22;30135;47.866;-4.222;2023-09-19T00:00:56;17.50;96.00
44431;DHT22;30135;47.866;-4.222;2023-09-19T00:03:25;17.60;96.10
44431;DHT22;30135;47.866;-4.222;2023-09-19T00:05:54;17.50;96.10
44431;DHT22;30135;47.866;-4.222;2023-09-19T00:08:21;17.60;96.10
44431;DHT22;30135;47.866;-4.222;2023-09-19T00:10:50;17.60;96.20
44431;DHT22;30135;47.866;-4.222;2023-09-19T00:13:16;17.60;96.20
44431;DHT22;30135;47.866;-4.222;2023-09-19T00:15:45;17.60;96.20
44431;DHT22;30135;47.866;-4.222;2023-09-19T00:18:15;17.60;96.20
44431;DHT22;30135;47.866;-4.222;2023-09-19T00:20:44;17.70;96.20
44431;DHT22;30135;47.866;-4.222;2023-09-19T00:23:13;17.70;96.20
44431;DHT22;30135;47.866;-4.222;2023-09-19T00:25:39;17.70;96.20
44431;DHT22;30135;47.866;-4.222;2023-09-19T00:28:07;17.70;96.20
44431;DHT22;30135;47.866;-4.222;2023-09-19T00:30:34;17.70;96.20
44431;DHT22;30135;47.866;-4.222;2023-09-19T00:33:00;17.70;96.20
44431;DHT22;30135;47.866;-4.222;2023-09-19T00:35:27;17.70;96.20
44431;DHT22;30135;47.866;-4.222;2023-09-19T00:37:53;17.70;96.10
44431;DHT22;30135;47.866;-4.222;2023-09-19T00:40:20;17.80;96.10
44431;DHT22;30135;47.866;-4.222;2023-09-19T00:42:47;17.80;96.10
44431;DHT22;30135;47.866;-4.222;2023-09-19T00:45:16;17.80;96.00
44431;DHT22;30135;47.866;-4.222;2023-09-19T00:47:48;17.80;95.90
44431;DHT22;30135;47.866;-4.222;2023-09-19T00:50:20;17.80;95.80
44431;DHT22;30135;47.866;-4.222;2023-09-19T00:52:49;17.80;95.80
44431;DHT22;30135;47.866;-4.222;2023-09-19T00:55:16;17.80;95.70
44431;DHT22;30135;47.866;-4.222;2023-09-19T00:57:46;17.80;95.70
44431;DHT22;30135;47.866;-4.222;2023-09-19T01:00:13;17.80;95.60
44431;DHT22;30135;47.866;-4.222;2023-09-19T01:02:44;17.80;95.60
44431;DHT22;30135;47.866;-4.222;2023-09-19T01:05:11;17.80;95.50
44431;DHT22;30135;47.866;-4.222;2023-09-19T01:07:41;17.80;95.40
44431;DHT22;30135;47.866;-4.222;2023-09-19T01:10:12;17.80;95.40
44431;DHT22;30135;47.866;-4.222;2023-09-19T01:21:29;17.80;95.40
44431;DHT22;30135;47.866;-4.222;2023-09-19T01:30:44;17.80;95.40
44431;DHT22;30135;47.866;-4.222;2023-09-19T01:33:10;17.80;95.40
44431;DHT22;30135;47.866;-4.222;2023-09-19T01:35:39;17.80;95.40
44431;DHT22;30135;47.866;-4.222;2023-09-19T01:38:06;17.80;95.40
44431;DHT22;30135;47.866;-4.222;2023-09-19T01:40:41;17.80;95.40
44431;DHT22;30135;47.866;-4.222;2023-09-19T01:43:19;17.80;95.40
44431;DHT22;30135;47.866;-4.222;2023-09-19T01:52:02;17.80;95.50
44431;DHT22;30135;47.866;-4.222;2023-09-19T01:54:34;17.80;95.60
44431;DHT22;30135;47.866;-4.222;2023-09-19T02:00:07;17.80;95.80
44431;DHT22;30135;47.866;-4.222;2023-09-19T02:02:38;17.80;95.80
44431;DHT22;30135;47.866;-4.222;2023-09-19T02:05:06;17.80;95.90
44431;DHT22;30135;47.866;-4.222;2023-09-19T02:07:32;17.80;96.30
44431;DHT22;30135;47.866;-4.222;2023-09-19T02:09:59;17.80;96.10
44431;DHT22;30135;47.866;-4.222;2023-09-19T02:12:28;17.80;96.20
44431;DHT22;30135;47.866;-4.222;2023-09-19T02:14:56;17.80;96.30
44431;DHT22;30135;47.866;-4.222;2023-09-19T02:17:23;17.80;96.50
44431;DHT22;30135;47.866;-4.222;2023-09-19T02:19:55;17.80;96.50
44431;DHT22;30135;47.866;-4.222;2023-09-19T02:22:21;17.80;96.60
44431;DHT22;30135;47.866;-4.222;2023-09-19T02:24:48;17.80;96.70
44431;DHT22;30135;47.866;-4.222;2023-09-19T02:27:14;17.80;96.80
44431;DHT22;30135;47.866;-4.222;2023-09-19T02:29:42;17.80;96.80
44431;DHT22;30135;47.866;-4.222;2023-09-19T02:32:08;17.80;96.90
44431;DHT22;30135;47.866;-4.222;2023-09-19T02:34:35;17.80;96.90
44431;DHT22;30135;47.866;-4.222;2023-09-19T02:37:07;17.80;96.90
44431;DHT22;30135;47.866;-4.222;2023-09-19T02:39:34;17.80;97.00
44431;DHT22;30135;47.866;-4.222;2023-09-19T02:42:01;17.80;97.00
44431;DHT22;30135;47.866;-4.222;2023-09-19T02:44:34;17.80;97.00
44431;DHT22;30135;47.866;-4.222;2023-09-19T02:47:00;17.80;97.10
44431;DHT22;30135;47.866;-4.222;2023-09-19T02:49:26;17.80;97.10
44431;DHT22;30135;47.866;-4.222;2023-09-19T02:51:52;17.80;97.10
44431;DHT22;30135;47.866;-4.222;2023-09-19T02:54:18;17.80;97.10
44431;DHT22;30135;47.866;-4.222;2023-09-19T02:56:44;17.80;97.10
44431;DHT22;30135;47.866;-4.222;2023-09-19T02:59:10;17.80;97.10
44431;DHT22;30135;47.866;-4.222;2023-09-19T03:01:37;17.80;97.10
44431;DHT22;30135;47.866;-4.222;2023-09-19T03:04:04;17.80;97.10
44431;DHT22;30135;47.866;-4.222;2023-09-19T03:06:31;17.80;97.20
44431;DHT22;30135;47.866;-4.222;2023-09-19T03:08:58;17.80;97.20
44431;DHT22;30135;47.866;-4.222;2023-09-19T03:11:25;17.80;97.20
44431;DHT22;30135;47.866;-4.222;2023-09-19T03:13:53;17.80;97.20
44431;DHT22;30135;47.866;-4.222;2023-09-19T03:16:19;17.80;97.20
44431;DHT22;30135;47.866;-4.222;2023-09-19T03:18:48;17.80;97.20
44431;DHT22;30135;47.866;-4.222;2023-09-19T03:21:16;17.80;97.20
44431;DHT22;30135;47.866;-4.222;2023-09-19T03:23:43;17.80;97.20
44431;DHT22;30135;47.866;-4.222;2023-09-19T03:26:12;17.80;97.20
44431;DHT22;30135;47.866;-4.222;2023-09-19T03:28:40;17.80;97.30
44431;DHT22;30135;47.866;-4.222;2023-09-19T03:31:06;17.80;97.30
44431;DHT22;30135;47.866;-4.222;2023-09-19T03:33:33;17.80;97.30
44431;DHT22;30135;47.866;-4.222;2023-09-19T03:36:00;17.80;97.30
44431;DHT22;30135;47.866;-4.222;2023-09-19T03:38:30;17.90;97.30
44431;DHT22;30135;47.866;-4.222;2023-09-19T03:40:57;17.90;97.30
44431;DHT22;30135;47.866;-4.222;2023-09-19T03:43:24;17.90;97.30
44431;DHT22;30135;47.866;-4.222;2023-09-19T03:45:50;17.90;97.30
44431;DHT22;30135;47.866;-4.222;2023-09-19T03:48:20;17.90;97.30
44431;DHT22;30135;47.866;-4.222;2023-09-19T03:50:47;17.90;97.30
44431;DHT22;30135;47.866;-4.222;2023-09-19T03:53:13;17.90;97.30
44431;DHT22;30135;47.866;-4.222;2023-09-19T03:55:39;17.90;97.40
44431;DHT22;30135;47.866;-4.222;2023-09-19T03:58:08;17.90;97.40
44431;DHT22;30135;47.866;-4.222;2023-09-19T04:00:34;18.00;97.40
44431;DHT22;30135;47.866;-4.222;2023-09-19T04:03:00;18.00;97.50
44431;DHT22;30135;47.866;-4.222;2023-09-19T04:05:31;18.00;97.50
44431;DHT22;30135;47.866;-4.222;2023-09-19T04:07:57;18.00;97.50
44431;DHT22;30135;47.866;-4.222;2023-09-19T04:10:23;18.00;97.40
44431;DHT22;30135;47.866;-4.222;2023-09-19T04:12:56;18.00;97.40
44431;DHT22;30135;47.866;-4.222;2023-09-19T04:15:23;18.00;97.40
44431;DHT22;30135;47.866;-4.222;2023-09-19T04:17:50;18.10;97.40
44431;DHT22;30135;47.866;-4.222;2023-09-19T04:20:17;18.10;97.30
44431;DHT22;30135;47.866;-4.222;2023-09-19T04:22:45;18.00;97.20
44431;DHT22;30135;47.866;-4.222;2023-09-19T04:25:12;18.10;97.20
44431;DHT22;30135;47.866;-4.222;2023-09-19T04:27:38;18.10;97.10
44431;DHT22;30135;47.866;-4.222;2023-09-19T04:30:06;18.10;96.90
44431;DHT22;30135;47.866;-4.222;2023-09-19T04:32:36;18.10;96.90
44431;DHT22;30135;47.866;-4.222;2023-09-19T04:35:06;18.10;96.80
44431;DHT22;30135;47.866;-4.222;2023-09-19T04:37:36;18.10;96.70
44431;DHT22;30135;47.866;-4.222;2023-09-19T04:40:07;18.10;96.70
44431;DHT22;30135;47.866;-4.222;2023-09-19T04:42:43;18.10;96.60
44431;DHT22;30135;47.866;-4.222;2023-09-19T04:45:10;18.10;96.60
44431;DHT22;30135;47.866;-4.222;2023-09-19T04:47:39;18.10;96.60
44431;DHT22;30135;47.866;-4.222;2023-09-19T04:50:08;18.10;96.60
44431;DHT22;30135;47.866;-4.222;2023-09-19T04:52:43;18.10;96.60
44431;DHT22;30135;47.866;-4.222;2023-09-19T04:55:13;18.10;96.60
44431;DHT22;30135;47.866;-4.222;2023-09-19T04:57:49;18.10;96.60
44431;DHT22;30135;47.866;-4.222;2023-09-19T05:00:18;18.10;96.60
44431;DHT22;30135;47.866;-4.222;2023-09-19T05:02:51;18.10;96.60
44431;DHT22;30135;47.866;-4.222;2023-09-19T05:05:18;18.10;96.70
44431;DHT22;30135;47.866;-4.222;2023-09-19T05:07:51;18.10;96.70
44431;DHT22;30135;47.866;-4.222;2023-09-19T05:10:19;18.10;96.70
44431;DHT22;30135;47.866;-4.222;2023-09-19T05:12:45;18.10;96.70
44431;DHT22;30135;47.866;-4.222;2023-09-19T05:15:14;18.10;96.70
44431;DHT22;30135;47.866;-4.222;2023-09-19T05:17:49;18.10;96.80
44431;DHT22;30135;47.866;-4.222;2023-09-19T05:20:17;18.10;96.70
44431;DHT22;30135;47.866;-4.222;2023-09-19T05:22:58;18.10;96.70
44431;DHT22;30135;47.866;-4.222;2023-09-19T05:25:38;18.20;96.80
44431;DHT22;30135;47.866;-4.222;2023-09-19T05:28:09;18.10;96.70
44431;DHT22;30135;47.866;-4.222;2023-09-19T05:30:37;18.10;96.70
44431;DHT22;30135;47.866;-4.222;2023-09-19T05:33:08;18.20;96.60
44431;DHT22;30135;47.866;-4.222;2023-09-19T05:35:35;18.10;96.60
44431;DHT22;30135;47.866;-4.222;2023-09-19T05:38:05;18.20;96.60
44431;DHT22;30135;47.866;-4.222;2023-09-19T05:40:34;18.20;96.60
44431;DHT22;30135;47.866;-4.222;2023-09-19T05:43:01;18.20;96.50
44431;DHT22;30135;47.866;-4.222;2023-09-19T05:45:28;18.20;96.40
44431;DHT22;30135;47.866;-4.222;2023-09-19T05:47:54;18.20;96.40
44431;DHT22;30135;47.866;-4.222;2023-09-19T05:50:30;18.20;96.40
44431;DHT22;30135;47.866;-4.222;2023-09-19T05:52:57;18.20;96.40
44431;DHT22;30135;47.866;-4.222;2023-09-19T05:55:23;18.20;96.30
44431;DHT22;30135;47.866;-4.222;2023-09-19T05:57:54;18.20;96.30
44431;DHT22;30135;47.866;-4.222;2023-09-19T06:00:21;18.20;96.20
44431;DHT22;30135;47.866;-4.222;2023-09-19T06:02:56;18.20;96.20
44431;DHT22;30135;47.866;-4.222;2023-09-19T06:05:24;18.20;96.10
44431;DHT22;30135;47.866;-4.222;2023-09-19T06:07:52;18.20;96.10
44431;DHT22;30135;47.866;-4.222;2023-09-19T06:10:19;18.20;96.00
44431;DHT22;30135;47.866;-4.222;2023-09-19T06:12:49;18.20;95.90
44431;DHT22;30135;47.866;-4.222;2023-09-19T06:15:15;18.20;95.90
44431;DHT22;30135;47.866;-4.222;2023-09-19T06:17:48;18.20;95.90
44431;DHT22;30135;47.866;-4.222;2023-09-19T06:20:15;18.20;95.90
44431;DHT22;30135;47.866;-4.222;2023-09-19T06:22:45;18.20;95.90
44431;DHT22;30135;47.866;-4.222;2023-09-19T06:25:13;18.20;95.80
44431;DHT22;30135;47.866;-4.222;2023-09-19T06:27:47;18.20;95.80
44431;DHT22;30135;47.866;-4.222;2023-09-19T06:30:15;18.20;95.90
44431;DHT22;30135;47.866;-4.222;2023-09-19T06:32:44;18.20;95.90
44431;DHT22;30135;47.866;-4.222;2023-09-19T06:35:11;18.20;95.80
44431;DHT22;30135;47.866;-4.222;2023-09-19T06:37:41;18.20;95.80
44431;DHT22;30135;47.866;-4.222;2023-09-19T06:42:40;18.20;95.70
44431;DHT22;30135;47.866;-4.222;2023-09-19T06:45:11;18.20;95.70
44431;DHT22;30135;47.866;-4.222;2023-09-19T06:47:45;18.20;95.70
44431;DHT22;30135;47.866;-4.222;2023-09-19T06:50:11;18.30;95.60
44431;DHT22;30135;47.866;-4.222;2023-09-19T06:52:41;18.20;95.60
44431;DHT22;30135;47.866;-4.222;2023-09-19T06:55:07;18.20;95.60
44431;DHT22;30135;47.866;-4.222;2023-09-19T06:57:35;18.30;95.60
44431;DHT22;30135;47.866;-4.222;2023-09-19T07:00:01;18.30;95.60
44431;DHT22;30135;47.866;-4.222;2023-09-19T07:02:28;18.20;95.60
44431;DHT22;30135;47.866;-4.222;2023-09-19T07:04:54;18.30;95.60
44431;DHT22;30135;47.866;-4.222;2023-09-19T07:07:20;18.30;95.60
44431;DHT22;30135;47.866;-4.222;2023-09-19T07:09:46;18.30;95.60
44431;DHT22;30135;47.866;-4.222;2023-09-19T07:12:14;18.30;95.60
44431;DHT22;30135;47.866;-4.222;2023-09-19T07:14:40;18.30;95.60
44431;DHT22;30135;47.866;-4.222;2023-09-19T07:17:06;18.30;95.60
44431;DHT22;30135;47.866;-4.222;2023-09-19T07:19:32;18.30;95.70
44431;DHT22;30135;47.866;-4.222;2023-09-19T07:21:58;18.40;95.70
44431;DHT22;30135;47.866;-4.222;2023-09-19T07:24:28;18.40;95.80
44431;DHT22;30135;47.866;-4.222;2023-09-19T07:26:54;18.40;95.80
44431;DHT22;30135;47.866;-4.222;2023-09-19T07:29:20;18.40;95.90
44431;DHT22;30135;47.866;-4.222;2023-09-19T07:31:46;18.40;95.90
44431;DHT22;30135;47.866;-4.222;2023-09-19T07:34:12;18.40;95.90
44431;DHT22;30135;47.866;-4.222;2023-09-19T07:36:39;18.40;95.90
44431;DHT22;30135;47.866;-4.222;2023-09-19T07:39:07;18.40;96.00
44431;DHT22;30135;47.866;-4.222;2023-09-19T07:41:33;18.40;96.00
44431;DHT22;30135;47.866;-4.222;2023-09-19T07:43:59;18.40;95.90
44431;DHT22;30135;47.866;-4.222;2023-09-19T07:46:26;18.50;95.90
44431;DHT22;30135;47.866;-4.222;2023-09-19T07:48:52;18.50;95.90
44431;DHT22;30135;47.866;-4.222;2023-09-19T07:51:18;18.50;96.00
44431;DHT22;30135;47.866;-4.222;2023-09-19T07:53:44;18.50;95.90
44431;DHT22;30135;47.866;-4.222;2023-09-19T07:56:10;18.50;95.90
44431;DHT22;30135;47.866;-4.222;2023-09-19T07:58:41;18.50;95.80
44431;DHT22;30135;47.866;-4.222;2023-09-19T08:01:10;18.50;95.80
44431;DHT22;30135;47.866;-4.222;2023-09-19T08:03:38;18.50;95.80
44431;DHT22;30135;47.866;-4.222;2023-09-19T08:06:08;18.50;95.80
44431;DHT22;30135;47.866;-4.222;2023-09-19T08:08:34;18.50;95.80
44431;DHT22;30135;47.866;-4.222;2023-09-19T08:11:05;18.50;95.80
44431;DHT22;30135;47.866;-4.222;2023-09-19T08:13:39;18.50;95.70
44431;DHT22;30135;47.866;-4.222;2023-09-19T08:16:17;18.50;95.70
44431;DHT22;30135;47.866;-4.222;2023-09-19T08:18:48;18.50;95.70
44431;DHT22;30135;47.866;-4.222;2023-09-19T08:21:21;18.50;95.70
44431;DHT22;30135;47.866;-4.222;2023-09-19T08:23:49;18.50;95.70
44431;DHT22;30135;47.866;-4.222;2023-09-19T08:26:15;18.60;95.70
44431;DHT22;30135;47.866;-4.222;2023-09-19T08:28:42;18.60;95.60
44431;DHT22;30135;47.866;-4.222;2023-09-19T08:31:09;18.60;95.60
44431;DHT22;30135;47.866;-4.222;2023-09-19T08:33:36;18.60;95.50
44431;DHT22;30135;47.866;-4.222;2023-09-19T08:36:06;18.60;95.50
44431;DHT22;30135;47.866;-4.222;2023-09-19T08:38:35;18.70;95.40
44431;DHT22;30135;47.866;-4.222;2023-09-19T08:41:07;18.70;95.40
44431;DHT22;30135;47.866;-4.222;2023-09-19T08:43:34;18.70;95.30
44431;DHT22;30135;47.866;-4.222;2023-09-19T08:46:15;18.70;95.30
44431;DHT22;30135;47.866;-4.222;2023-09-19T08:48:58;18.80;95.10
44431;DHT22;30135;47.866;-4.222;2023-09-19T08:51:41;18.80;95.10
44431;DHT22;30135;47.866;-4.222;2023-09-19T08:54:24;18.80;95.10
44431;DHT22;30135;47.866;-4.222;2023-09-19T08:56:55;18.90;95.10
44431;DHT22;30135;47.866;-4.222;2023-09-19T08:59:23;18.90;95.00
44431;DHT22;30135;47.866;-4.222;2023-09-19T09:01:56;18.90;95.00
44431;DHT22;30135;47.866;-4.222;2023-09-19T09:04:23;18.90;94.90
44431;DHT22;30135;47.866;-4.222;2023-09-19T09:06:51;19.00;94.90
44431;DHT22;30135;47.866;-4.222;2023-09-19T09:09:20;19.00;94.80
44431;DHT22;30135;47.866;-4.222;2023-09-19T09:11:48;19.00;94.70
44431;DHT22;30135;47.866;-4.222;2023-09-19T09:14:19;19.00;94.60
44431;DHT22;30135;47.866;-4.222;2023-09-19T09:16:46;19.10;94.60
44431;DHT22;30135;47.866;-4.222;2023-09-19T09:19:14;19.10;94.60
44431;DHT22;30135;47.866;-4.222;2023-09-19T09:21:46;19.10;94.60
44431;DHT22;30135;47.866;-4.222;2023-09-19T09:24:31;19.20;94.40
44431;DHT22;30135;47.866;-4.222;2023-09-19T09:26:59;19.10;94.10
44431;DHT22;30135;47.866;-4.222;2023-09-19T09:29:48;19.10;94.20
44431;DHT22;30135;47.866;-4.222;2023-09-19T09:32:18;19.20;94.10
44431;DHT22;30135;47.866;-4.222;2023-09-19T09:34:50;19.20;94.60
44431;DHT22;30135;47.866;-4.222;2023-09-19T09:37:18;19.20;94.10
44431;DHT22;30135;47.866;-4.222;2023-09-19T09:39:57;19.20;94.10
44431;DHT22;30135;47.866;-4.222;2023-09-19T09:42:36;19.10;94.00
44431;DHT22;30135;47.866;-4.222;2023-09-19T09:45:22;19.10;94.10
44431;DHT22;30135;47.866;-4.222;2023-09-19T09:48:03;19.10;94.00
44431;DHT22;30135;47.866;-4.222;2023-09-19T09:50:46;19.10;94.00
44431;DHT22;30135;47.866;-4.222;2023-09-19T09:53:26;19.10;94.10
44431;DHT22;30135;47.866;-4.222;2023-09-19T09:56:06;19.10;94.10
44431;DHT22;30135;47.866;-4.222;2023-09-19T09:58:37;19.20;94.10
44431;DHT22;30135;47.866;-4.222;2023-09-19T10:01:14;19.10;94.00
44431;DHT22;30135;47.866;-4.222;2023-09-19T10:03:42;19.20;93.90
44431;DHT22;30135;47.866;-4.222;2023-09-19T10:06:11;19.20;93.90
44431;DHT22;30135;47.866;-4.222;2023-09-19T10:09:04;19.20;93.90
44431;DHT22;30135;47.866;-4.222;2023-09-19T10:11:47;19.20;93.80
44431;DHT22;30135;47.866;-4.222;2023-09-19T10:14:27;19.20;93.70
44431;DHT22;30135;47.866;-4.222;2023-09-19T10:16:58;19.30;93.70
44431;DHT22;30135;47.866;-4.222;2023-09-19T10:19:55;19.30;93.60
44431;DHT22;30135;47.866;-4.222;2023-09-19T10:22:28;19.30;93.50
44431;DHT22;30135;47.866;-4.222;2023-09-19T10:24:58;19.30;93.60
44431;DHT22;30135;47.866;-4.222;2023-09-19T10:27:26;19.30;93.60
44431;DHT22;30135;47.866;-4.222;2023-09-19T10:29:53;19.40;93.60
44431;DHT22;30135;47.866;-4.222;2023-09-19T10:32:22;19.40;93.60
44431;DHT22;30135;47.866;-4.222;2023-09-19T10:34:49;19.40;93.50
44431;DHT22;30135;47.866;-4.222;2023-09-19T10:37:20;19.50;93.50
44431;DHT22;30135;47.866;-4.222;2023-09-19T10:39:48;19.50;93.50
44431;DHT22;30135;47.866;-4.222;2023-09-19T10:42:19;19.50;93.40
44431;DHT22;30135;47.866;-4.222;2023-09-19T10:44:50;19.60;93.30
44431;DHT22;30135;47.866;-4.222;2023-09-19T10:47:20;19.60;93.20
44431;DHT22;30135;47.866;-4.222;2023-09-19T10:49:50;19.60;93.20
44431;DHT22;30135;47.866;-4.222;2023-09-19T10:52:19;19.60;93.10
44431;DHT22;30135;47.866;-4.222;2023-09-19T10:54:48;19.60;93.00
44431;DHT22;30135;47.866;-4.222;2023-09-19T10:57:24;19.70;92.90
44431;DHT22;30135;47.866;-4.222;2023-09-19T11:00:06;19.60;92.70
44431;DHT22;30135;47.866;-4.222;2023-09-19T11:05:39;19.70;92.60
44431;DHT22;30135;47.866;-4.222;2023-09-19T11:08:09;19.60;92.70
44431;DHT22;30135;47.866;-4.222;2023-09-19T11:10:47;19.70;92.70
44431;DHT22;30135;47.866;-4.222;2023-09-19T11:13:27;19.70;92.70
44431;DHT22;30135;47.866;-4.222;2023-09-19T11:26:50;19.80;92.60
44431;DHT22;30135;47.866;-4.222;2023-09-19T11:29:30;19.80;92.60
44431;DHT22;30135;47.866;-4.222;2023-09-19T11:31:57;19.80;92.50
44431;DHT22;30135;47.866;-4.222;2023-09-19T11:40:26;19.90;92.60
44431;DHT22;30135;47.866;-4.222;2023-09-19T11:42:53;19.90;92.50
44431;DHT22;30135;47.866;-4.222;2023-09-19T11:48:16;20.00;92.40
44431;DHT22;30135;47.866;-4.222;2023-09-19T11:50:45;20.00;92.40
44431;DHT22;30135;47.866;-4.222;2023-09-19T11:53:13;20.00;92.30
44431;DHT22;30135;47.866;-4.222;2023-09-19T11:55:42;20.10;92.30
44431;DHT22;30135;47.866;-4.222;2023-09-19T11:58:09;20.10;92.30
44431;DHT22;30135;47.866;-4.222;2023-09-19T12:00:38;20.10;92.20
44431;DHT22;30135;47.866;-4.222;2023-09-19T12:03:11;20.20;92.00
44431;DHT22;30135;47.866;-4.222;2023-09-19T12:05:39;20.20;91.90
44431;DHT22;30135;47.866;-4.222;2023-09-19T12:08:09;20.20;91.70
44431;DHT22;30135;47.866;-4.222;2023-09-19T12:10:55;20.20;92.00
44431;DHT22;30135;47.866;-4.222;2023-09-19T12:13:22;20.30;91.40
44431;DHT22;30135;47.866;-4.222;2023-09-19T12:15:48;20.20;91.50
44431;DHT22;30135;47.866;-4.222;2023-09-19T12:18:30;20.20;91.40
44431;DHT22;30135;47.866;-4.222;2023-09-19T12:20:56;20.30;91.50
44431;DHT22;30135;47.866;-4.222;2023-09-19T12:23:28;20.20;91.50
44431;DHT22;30135;47.866;-4.222;2023-09-19T12:25:55;20.30;91.60
44431;DHT22;30135;47.866;-4.222;2023-09-19T12:28:26;20.30;91.60
44431;DHT22;30135;47.866;-4.222;2023-09-19T12:30:55;20.20;91.60
44431;DHT22;30135;47.866;-4.222;2023-09-19T12:33:23;20.20;91.60
44431;DHT22;30135;47.866;-4.222;2023-09-19T12:35:52;20.20;91.50
44431;DHT22;30135;47.866;-4.222;2023-09-19T12:38:28;20.20;91.50
44431;DHT22;30135;47.866;-4.222;2023-09-19T12:40:57;20.20;91.50
44431;DHT22;30135;47.866;-4.222;2023-09-19T12:43:26;20.20;91.50
44431;DHT22;30135;47.866;-4.222;2023-09-19T12:46:01;20.20;91.50
44431;DHT22;30135;47.866;-4.222;2023-09-19T12:48:28;20.20;91.50
44431;DHT22;30135;47.866;-4.222;2023-09-19T12:51:07;20.10;91.50
44431;DHT22;30135;47.866;-4.222;2023-09-19T12:53:43;20.10;91.50
44431;DHT22;30135;47.866;-4.222;2023-09-19T12:56:12;20.10;91.50
44431;DHT22;30135;47.866;-4.222;2023-09-19T12:58:55;20.10;91.60
44431;DHT22;30135;47.866;-4.222;2023-09-19T13:01:23;20.10;91.50
44431;DHT22;30135;47.866;-4.222;2023-09-19T13:07:00;20.10;91.60
44431;DHT22;30135;47.866;-4.222;2023-09-19T13:09:30;20.10;91.70
44431;DHT22;30135;47.866;-4.222;2023-09-19T13:12:05;20.10;91.80
44431;DHT22;30135;47.866;-4.222;2023-09-19T13:15:12;20.10;91.80
44431;DHT22;30135;47.866;-4.222;2023-09-19T13:17:49;20.10;91.90
44431;DHT22;30135;47.866;-4.222;2023-09-19T13:20:25;20.10;91.90
44431;DHT22;30135;47.866;-4.222;2023-09-19T13:22:55;20.20;91.90
44431;DHT22;30135;47.866;-4.222;2023-09-19T13:25:26;20.10;91.90
44431;DHT22;30135;47.866;-4.222;2023-09-19T13:27:56;20.10;92.00
44431;DHT22;30135;47.866;-4.222;2023-09-19T13:30:24;20.10;92.00
44431;DHT22;30135;47.866;-4.222;2023-09-19T13:32:52;20.10;92.10
44431;DHT22;30135;47.866;-4.222;2023-09-19T13:35:19;20.10;92.10
44431;DHT22;30135;47.866;-4.222;2023-09-19T13:37:47;20.10;92.10
44431;DHT22;30135;47.866;-4.222;2023-09-19T13:40:17;20.20;92.00
44431;DHT22;30135;47.866;-4.222;2023-09-19T13:42:43;20.20;92.10
44431;DHT22;30135;47.866;-4.222;2023-09-19T13:45:09;20.20;92.10
44431;DHT22;30135;47.866;-4.222;2023-09-19T13:47:38;20.20;92.10
44431;DHT22;30135;47.866;-4.222;2023-09-19T13:50:05;20.20;92.20
44431;DHT22;30135;47.866;-4.222;2023-09-19T13:52:32;20.20;92.30
44431;DHT22;30135;47.866;-4.222;2023-09-19T13:54:58;20.20;92.30
44431;DHT22;30135;47.866;-4.222;2023-09-19T13:57:25;20.30;92.20
44431;DHT22;30135;47.866;-4.222;2023-09-19T13:59:52;20.30;92.20
44431;DHT22;30135;47.866;-4.222;2023-09-19T14:02:22;20.30;92.30
44431;DHT22;30135;47.866;-4.222;2023-09-19T14:04:49;20.30;92.30
44431;DHT22;30135;47.866;-4.222;2023-09-19T14:07:16;20.40;92.40
44431;DHT22;30135;47.866;-4.222;2023-09-19T14:09:43;20.40;92.30
44431;DHT22;30135;47.866;-4.222;2023-09-19T14:12:11;20.40;92.30
44431;DHT22;30135;47.866;-4.222;2023-09-19T14:14:37;20.40;92.20
44431;DHT22;30135;47.866;-4.222;2023-09-19T14:17:04;20.30;92.10
44431;DHT22;30135;47.866;-4.222;2023-09-19T14:19:32;20.30;92.20
44431;DHT22;30135;47.866;-4.222;2023-09-19T14:21:59;20.20;92.30
44431;DHT22;30135;47.866;-4.222;2023-09-19T14:24:27;20.30;92.30
44431;DHT22;30135;47.866;-4.222;2023-09-19T14:26:53;20.20;92.50
44431;DHT22;30135;47.866;-4.222;2023-09-19T14:29:19;20.20;92.60
44431;DHT22;30135;47.866;-4.222;2023-09-19T14:31:45;20.10;92.70
44431;DHT22;30135;47.866;-4.222;2023-09-19T14:34:11;20.10;92.80
44431;DHT22;30135;47.866;-4.222;2023-09-19T14:36:38;20.10;92.90
44431;DHT22;30135;47.866;-4.222;2023-09-19T14:39:04;20.10;93.00
44431;DHT22;30135;47.866;-4.222;2023-09-19T14:41:30;20.10;93.00
44431;DHT22;30135;47.866;-4.222;2023-09-19T14:43:57;20.10;93.40
44431;DHT22;30135;47.866;-4.222;2023-09-19T14:46:24;20.10;93.00
44431;DHT22;30135;47.866;-4.222;2023-09-19T14:48:53;20.10;92.90
44431;DHT22;30135;47.866;-4.222;2023-09-19T14:51:19;20.00;92.90
44431;DHT22;30135;47.866;-4.222;2023-09-19T14:53:46;20.00;92.90
44431;DHT22;30135;47.866;-4.222;2023-09-19T14:56:12;20.00;93.30
44431;DHT22;30135;47.866;-4.222;2023-09-19T14:58:43;20.00;93.10
44431;DHT22;30135;47.866;-4.222;2023-09-19T15:01:10;20.00;93.20
44431;DHT22;30135;47.866;-4.222;2023-09-19T15:03:39;20.00;93.20
44431;DHT22;30135;47.866;-4.222;2023-09-19T15:06:11;20.00;93.40
44431;DHT22;30135;47.866;-4.222;2023-09-19T15:08:44;20.00;93.50
44431;DHT22;30135;47.866;-4.222;2023-09-19T15:11:22;20.00;93.60
44431;DHT22;30135;47.866;-4.222;2023-09-19T15:13:51;19.90;93.80
44431;DHT22;30135;47.866;-4.222;2023-09-19T15:16:18;19.90;93.90
44431;DHT22;30135;47.866;-4.222;2023-09-19T15:18:45;19.80;94.00
44431;DHT22;30135;47.866;-4.222;2023-09-19T15:21:13;19.80;94.20
44431;DHT22;30135;47.866;-4.222;2023-09-19T15:23:41;19.70;94.40
44431;DHT22;30135;47.866;-4.222;2023-09-19T15:26:13;19.80;94.60
44431;DHT22;30135;47.866;-4.222;2023-09-19T15:28:42;19.70;94.70
44431;DHT22;30135;47.866;-4.222;2023-09-19T15:31:10;19.70;94.80
44431;DHT22;30135;47.866;-4.222;2023-09-19T15:33:37;19.70;94.90
44431;DHT22;30135;47.866;-4.222;2023-09-19T15:36:11;19.70;95.00
44431;DHT22;30135;47.866;-4.222;2023-09-19T15:39:01;19.70;95.10
44431;DHT22;30135;47.866;-4.222;2023-09-19T15:41:36;19.70;95.20
44431;DHT22;30135;47.866;-4.222;2023-09-19T15:44:16;19.70;95.20
44431;DHT22;30135;47.866;-4.222;2023-09-19T15:46:45;19.70;95.20
44431;DHT22;30135;47.866;-4.222;2023-09-19T15:49:12;19.70;95.20
44431;DHT22;30135;47.866;-4.222;2023-09-19T15:51:39;19.70;95.30
44431;DHT22;30135;47.866;-4.222;2023-09-19T15:54:14;19.70;95.70
44431;DHT22;30135;47.866;-4.222;2023-09-19T15:56:45;19.70;95.50
44431;DHT22;30135;47.866;-4.222;2023-09-19T15:59:12;19.70;95.50
44431;DHT22;30135;47.866;-4.222;2023-09-19T16:01:39;19.70;95.60
44431;DHT22;30135;47.866;-4.222;2023-09-19T16:04:08;19.80;95.60
44431;DHT22;30135;47.866;-4.222;2023-09-19T16:06:35;19.80;95.60
44431;DHT22;30135;47.866;-4.222;2023-09-19T16:09:03;19.80;95.60
44431;DHT22;30135;47.866;-4.222;2023-09-19T16:11:34;19.80;95.70
44431;DHT22;30135;47.866;-4.222;2023-09-19T16:14:00;19.80;95.60
44431;DHT22;30135;47.866;-4.222;2023-09-19T16:16:28;19.70;95.60
44431;DHT22;30135;47.866;-4.222;2023-09-19T16:19:00;19.70;95.60
44431;DHT22;30135;47.866;-4.222;2023-09-19T16:21:30;19.70;95.50
44431;DHT22;30135;47.866;-4.222;2023-09-19T16:23:59;19.70;95.50